Time;durP1;ratioP1;P1;durP2;ratioP2;P2;SDS_P1;SDS_P2;PMS_P1;PMS_P2;Temp;Humidity;BMP_temperature;BMP_pressure;BME280_temperature;BME280_humidity;BME280_pressure;Samples;Min_cycle;Max_cycle;Signal;HPM_P1;HPM_P2
2022/06/13 00:01:36;;;;;;;3.17;1.70;;;24.50;62.00;;;;;;5073885;28;20179;-7
2022/06/13 00:04:03;;;;;;;2.53;1.60;;;24.50;62.00;;;;;;5056811;28;20207;-6
2022/06/13 00:06:29;;;;;;;2.23;1.50;;;24.50;61.90;;;;;;5055815;28;20175;-5
2022/06/13 00:08:55;;;;;;;2.13;1.20;;;24.40;61.90;;;;;;5074637;28;20184;-6
2022/06/13 00:11:23;;;;;;;2.33;1.50;;;24.40;61.90;;;;;;5074452;28;20171;-6
2022/06/13 00:13:52;;;;;;;3.20;1.33;;;24.40;61.90;;;;;;5074433;28;20191;-5
2022/06/13 00:16:18;;;;;;;2.33;1.53;;;24.40;61.90;;;;;;5074009;28;20199;-6
2022/06/13 00:18:47;;;;;;;1.80;1.50;;;24.40;61.90;;;;;;5072498;28;20556;-4
2022/06/13 00:21:18;;;;;;;2.00;1.70;;;24.30;61.90;;;;;;5073016;28;20211;-6
2022/06/13 00:23:44;;;;;;;1.73;1.50;;;24.30;61.70;;;;;;5072602;28;20231;-6
2022/06/13 00:26:09;;;;;;;3.83;1.33;;;24.30;61.60;;;;;;5073739;28;20207;-6
2022/06/13 00:28:35;;;;;;;2.43;1.37;;;24.30;61.70;;;;;;5075145;28;20539;-5
2022/06/13 00:31:01;;;;;;;3.13;1.43;;;24.30;61.70;;;;;;5073842;28;20167;-6
2022/06/13 00:33:27;;;;;;;3.47;1.40;;;24.30;61.70;;;;;;5075036;28;20325;-6
2022/06/13 00:35:52;;;;;;;2.50;1.47;;;24.20;61.60;;;;;;5057325;28;20176;-6
2022/06/13 00:38:18;;;;;;;2.43;1.50;;;24.20;61.60;;;;;;5057731;28;20176;-5
2022/06/13 00:40:44;;;;;;;1.90;1.30;;;24.20;61.80;;;;;;5073489;28;20584;-6
2022/06/13 00:43:15;;;;;;;1.70;1.30;;;24.20;61.80;;;;;;5056585;28;20175;-6
2022/06/13 00:45:41;;;;;;;2.67;1.60;;;24.20;61.90;;;;;;5073326;28;20623;-6
2022/06/13 00:48:12;;;;;;;3.97;1.53;;;24.10;61.70;;;;;;5074464;28;20274;-5
2022/06/13 00:50:50;;;;;;;1.50;1.30;;;24.10;61.70;;;;;;5057426;28;20171;-5
2022/06/13 00:53:23;;;;;;;1.97;1.40;;;24.10;61.60;;;;;;5074643;28;20568;-6
2022/06/13 00:55:56;;;;;;;2.70;1.30;;;24.10;61.90;;;;;;5075743;28;20489;-6
2022/06/13 00:58:25;;;;;;;2.07;1.50;;;24.00;62.00;;;;;;5075058;28;20660;-8
2022/06/13 01:00:54;;;;;;;1.80;1.47;;;24.00;62.20;;;;;;5075137;28;20203;-6
2022/06/13 01:03:21;;;;;;;2.80;1.50;;;24.00;62.20;;;;;;5074985;28;20474;-5
2022/06/13 01:05:50;;;;;;;1.53;1.30;;;24.00;62.20;;;;;;5074597;28;20175;-6
2022/06/13 01:08:17;;;;;;;2.00;1.30;;;24.00;62.20;;;;;;5074247;28;20624;-6
2022/06/13 01:14:02;;;;;;;1.83;1.33;;;23.90;62.30;;;;;;5075206;28;20208;-5
2022/06/13 01:16:46;;;;;;;2.20;1.20;;;23.90;62.40;;;;;;5074430;28;20199;-6
2022/06/13 01:19:36;;;;;;;2.20;1.37;;;23.90;62.20;;;;;;5074100;28;20303;-6
2022/06/13 01:22:29;;;;;;;2.03;1.23;;;23.90;62.30;;;;;;5075036;28;20548;-5
2022/06/13 01:25:01;;;;;;;3.10;1.73;;;23.80;62.30;;;;;;5074238;28;20167;-6
2022/06/13 01:27:55;;;;;;;3.07;1.60;;;23.80;62.20;;;;;;5074393;28;20241;-5
2022/06/13 01:30:47;;;;;;;1.30;1.20;;;23.80;62.30;;;;;;5056886;28;20498;-6
2022/06/13 01:33:29;;;;;;;1.80;1.40;;;23.80;62.20;;;;;;5074071;28;20176;-6
2022/06/13 01:36:19;;;;;;;1.87;1.50;;;23.70;62.20;;;;;;5057687;28;20266;-5
2022/06/13 01:39:22;;;;;;;3.47;1.40;;;23.70;62.40;;;;;;5075443;28;20441;-5
2022/06/13 01:42:09;;;;;;;1.50;1.20;;;23.70;62.40;;;;;;5057838;28;20171;-5
2022/06/13 01:44:56;;;;;;;2.23;1.30;;;23.70;62.40;;;;;;5074889;28;20168;-5
2022/06/13 01:47:40;;;;;;;3.37;1.40;;;23.70;62.30;;;;;;5074233;28;20179;-6
2022/06/13 01:50:23;;;;;;;2.80;1.67;;;23.60;62.40;;;;;;5055542;28;20179;-6
2022/06/13 01:53:06;;;;;;;2.07;1.37;;;23.60;62.50;;;;;;5073377;28;20453;-6
2022/06/13 01:55:38;;;;;;;1.53;1.17;;;23.60;62.50;;;;;;5072754;28;20179;-4
2022/06/13 01:58:11;;;;;;;1.63;1.23;;;23.50;62.50;;;;;;5074399;28;20183;-6
2022/06/13 02:00:39;;;;;;;2.47;1.40;;;23.50;62.70;;;;;;5056491;28;20211;-5
2022/06/13 02:03:27;;;;;;;2.10;1.33;;;23.50;62.70;;;;;;5074156;28;20452;-6
2022/06/13 02:06:01;;;;;;;1.50;1.27;;;23.50;62.70;;;;;;5073042;28;20176;-6
2022/06/13 02:08:41;;;;;;;1.77;1.30;;;23.50;62.70;;;;;;5056467;28;20545;-5
2022/06/13 02:11:25;;;;;;;2.60;1.30;;;23.50;62.80;;;;;;5075652;28;20242;-6
2022/06/13 02:14:09;;;;;;;2.10;1.30;;;23.40;63.40;;;;;;5076160;28;20164;-5
2022/06/13 02:17:03;;;;;;;1.60;1.30;;;23.40;62.60;;;;;;5077405;28;20451;-6
2022/06/13 02:19:43;;;;;;;1.87;1.27;;;23.40;62.60;;;;;;5077700;28;20572;-5
2022/06/13 02:22:14;;;;;;;2.77;1.23;;;23.40;62.60;;;;;;5078190;28;20164;-6
2022/06/13 02:24:47;;;;;;;1.80;1.30;;;23.40;62.70;;;;;;5061149;28;20302;-6
2022/06/13 02:27:15;;;;;;;1.50;1.27;;;23.30;62.80;;;;;;5078874;28;20167;-6
2022/06/13 02:29:48;;;;;;;1.60;1.23;;;23.30;62.50;;;;;;5078601;28;20525;-5
2022/06/13 02:32:26;;;;;;;3.10;1.30;;;23.30;62.60;;;;;;5078132;28;20198;-6
2022/06/13 02:35:06;;;;;;;1.07;0.93;;;23.30;62.70;;;;;;5075966;28;20172;-6
2022/06/13 02:37:51;;;;;;;1.67;1.30;;;23.30;62.90;;;;;;5059297;28;20179;-5
2022/06/13 02:40:29;;;;;;;3.07;1.30;;;23.30;63.00;;;;;;5058993;28;20563;-6
2022/06/13 02:43:18;;;;;;;2.13;1.40;;;23.30;63.00;;;;;;5077880;28;20167;-5
2022/06/13 02:46:10;;;;;;;1.33;1.20;;;23.30;63.00;;;;;;5078269;28;20524;-6
2022/06/13 02:48:42;;;;;;;3.03;1.40;;;23.20;63.70;;;;;;5069079;28;20215;-6
2022/06/13 02:51:30;;;;;;;1.80;1.27;;;23.20;63.00;;;;;;5077169;28;20191;-5
2022/06/13 02:54:41;;;;;;;2.33;1.30;;;23.20;63.00;;;;;;5059611;28;20353;-5
2022/06/13 02:57:27;;;;;;;2.83;1.37;;;23.20;63.00;;;;;;5014235;28;20294;-5
2022/06/13 03:00:08;;;;;;;1.37;1.20;;;23.20;63.10;;;;;;5070804;28;20320;-5
2022/06/13 03:02:42;;;;;;;1.47;1.37;;;23.10;63.60;;;;;;5058306;28;20274;-5
2022/06/13 03:05:20;;;;;;;2.33;1.40;;;23.10;63.00;;;;;;5077118;28;20231;-4
2022/06/13 03:08:17;;;;;;;1.57;1.40;;;23.10;63.10;;;;;;5078338;28;20171;-4
2022/06/13 03:10:47;;;;;;;2.03;1.40;;;23.10;63.10;;;;;;5073216;28;20299;-6
2022/06/13 03:13:24;;;;;;;1.73;1.20;;;23.10;63.20;;;;;;5058949;28;20567;-5
2022/06/13 03:15:56;;;;;;;1.10;1.00;;;23.10;63.20;;;;;;5059303;28;20657;-5
2022/06/13 03:18:27;;;;;;;1.50;1.20;;;23.00;63.10;;;;;;5056744;28;20346;-6
2022/06/13 03:20:59;;;;;;;1.20;1.10;;;23.00;63.00;;;;;;5071918;28;20250;-6
2022/06/13 03:23:40;;;;;;;1.10;1.00;;;23.00;63.00;;;;;;5057254;28;20181;-6
2022/06/13 03:26:12;;;;;;;1.60;1.40;;;23.00;63.00;;;;;;5056126;28;20576;-5
2022/06/13 03:28:50;;;;;;;1.20;1.10;;;23.00;62.90;;;;;;5074070;28;20178;-5
2022/06/13 03:31:18;;;;;;;2.47;1.50;;;23.00;63.00;;;;;;5073193;28;20171;-5
2022/06/13 03:33:51;;;;;;;1.77;1.20;;;23.00;63.10;;;;;;5075617;28;20254;-6
2022/06/13 03:36:26;;;;;;;1.73;1.40;;;23.00;63.10;;;;;;5074672;28;20422;-6
2022/06/13 03:38:59;;;;;;;1.30;1.20;;;23.00;63.20;;;;;;5058425;28;20257;-6
2022/06/13 03:41:31;;;;;;;1.20;1.10;;;22.90;63.10;;;;;;5074453;28;20164;-5
2022/06/13 03:44:03;;;;;;;1.37;1.20;;;22.90;63.00;;;;;;5074168;28;20164;-6
2022/06/13 03:46:41;;;;;;;2.00;1.23;;;22.90;63.00;;;;;;5074696;28;20218;-6
2022/06/13 03:49:33;;;;;;;1.93;1.17;;;22.90;63.00;;;;;;5076030;28;20440;-5
2022/06/13 03:52:01;;;;;;;1.20;1.00;;;22.90;63.00;;;;;;5067796;28;20195;-5
2022/06/13 03:54:43;;;;;;;1.53;1.20;;;22.90;63.00;;;;;;5076313;28;20176;-6
2022/06/13 03:57:20;;;;;;;1.50;1.30;;;22.90;62.90;;;;;;5057927;28;20239;-6
2022/06/13 04:00:08;;;;;;;2.00;1.30;;;22.90;62.90;;;;;;5058186;28;20234;-6
2022/06/13 04:02:37;;;;;;;1.77;1.30;;;22.80;62.80;;;;;;5075073;28;20175;-8
2022/06/13 04:05:03;;;;;;;2.03;1.20;;;22.80;62.80;;;;;;5073791;28;20476;-6
2022/06/13 04:07:33;;;;;;;1.40;1.20;;;22.80;62.70;;;;;;5073913;28;20174;-6
2022/06/13 04:10:12;;;;;;;1.20;1.10;;;22.80;62.70;;;;;;5056065;28;20190;-5
2022/06/13 04:13:18;;;;;;;1.80;1.33;;;22.80;62.60;;;;;;5074749;28;20171;-6
2022/06/13 04:16:07;;;;;;;1.20;1.00;;;22.80;62.60;;;;;;5074516;28;20255;-6
2022/06/13 04:18:47;;;;;;;1.20;1.10;;;22.80;62.60;;;;;;5075153;28;20187;-6
2022/06/13 04:21:45;;;;;;;1.67;1.27;;;22.80;62.50;;;;;;5075381;28;20296;-4
2022/06/13 04:24:27;;;;;;;1.80;1.20;;;22.80;62.50;;;;;;5063636;28;20282;-6
2022/06/13 04:27:05;;;;;;;1.20;1.10;;;22.80;62.40;;;;;;5073786;28;20553;-5
2022/06/13 04:30:02;;;;;;;1.40;1.30;;;22.80;62.40;;;;;;5074328;28;20171;-6
2022/06/13 04:32:47;;;;;;;2.33;1.17;;;22.80;62.30;;;;;;5051571;28;20270;-6
2022/06/13 04:35:14;;;;;;;1.83;1.40;;;22.80;62.30;;;;;;5071345;28;20209;-6
2022/06/13 04:37:40;;;;;;;1.57;1.17;;;22.80;62.20;;;;;;5074047;28;20173;-5
2022/06/13 04:40:10;;;;;;;1.50;1.00;;;22.70;62.10;;;;;;5057305;28;20234;-5
2022/06/13 04:42:39;;;;;;;1.97;1.17;;;22.70;62.10;;;;;;5074678;28;20599;-5
2022/06/13 04:45:18;;;;;;;1.40;1.30;;;22.70;62.00;;;;;;5073700;28;20508;-6
2022/06/13 04:47:45;;;;;;;2.23;1.20;;;22.70;61.90;;;;;;5055312;28;20292;-6
2022/06/13 04:50:32;;;;;;;1.27;1.17;;;22.70;61.90;;;;;;5070008;28;20185;-6
2022/06/13 04:52:59;;;;;;;1.27;1.13;;;22.70;61.80;;;;;;5052393;28;20228;-5
2022/06/13 04:55:37;;;;;;;1.30;1.03;;;22.80;61.90;;;;;;5070205;28;20278;-5
2022/06/13 04:58:03;;;;;;;2.17;1.13;;;22.70;61.80;;;;;;5071538;28;20576;-5
2022/06/13 05:00:31;;;;;;;2.23;1.10;;;22.70;61.70;;;;;;5070475;28;20662;-5
2022/06/13 05:02:57;;;;;;;3.53;1.20;;;22.70;61.70;;;;;;5054299;28;20175;-6
2022/06/13 05:05:43;;;;;;;1.50;1.20;;;22.70;61.70;;;;;;5071391;28;20346;-6
2022/06/13 05:08:20;;;;;;;1.67;1.20;;;22.70;61.70;;;;;;5071208;28;20175;-6
2022/06/13 05:10:49;;;;;;;2.37;1.13;;;22.70;61.60;;;;;;5071982;28;20162;-6
2022/06/13 05:13:16;;;;;;;1.40;1.10;;;22.70;61.50;;;;;;5069613;28;20364;-5
2022/06/13 05:15:45;;;;;;;1.60;1.23;;;22.70;61.50;;;;;;5052503;28;20182;-5
2022/06/13 05:18:20;;;;;;;2.60;1.20;;;22.70;61.50;;;;;;5069985;28;20187;-5
2022/06/13 05:21:21;;;;;;;1.30;1.20;;;22.70;61.40;;;;;;5071753;28;20191;-6
2022/06/13 05:24:19;;;;;;;1.30;1.20;;;22.70;61.40;;;;;;5055032;28;20167;-5
2022/06/13 05:26:44;;;;;;;1.10;1.00;;;22.60;61.30;;;;;;5072181;28;20449;-6
2022/06/13 05:29:10;;;;;;;1.57;1.40;;;22.70;61.30;;;;;;5071031;28;20171;-5
2022/06/13 05:31:36;;;;;;;1.33;1.17;;;22.60;61.30;;;;;;5071139;28;20167;-6
2022/06/13 05:34:04;;;;;;;1.83;1.20;;;22.60;61.40;;;;;;5069166;28;20352;-6
2022/06/13 05:36:30;;;;;;;2.73;1.27;;;22.60;61.50;;;;;;5069371;28;20198;-5
2022/06/13 05:39:01;;;;;;;1.20;1.10;;;22.60;61.50;;;;;;5069588;28;20225;-7
2022/06/13 05:41:28;;;;;;;2.00;1.20;;;22.70;61.60;;;;;;5069885;28;20155;-6
2022/06/13 05:43:54;;;;;;;1.40;1.30;;;22.70;61.50;;;;;;5053938;28;20501;-5
2022/06/13 05:46:29;;;;;;;3.50;1.30;;;22.70;61.40;;;;;;5075028;28;20272;-4
2022/06/13 05:48:55;;;;;;;2.23;1.50;;;22.80;61.40;;;;;;5056450;28;20224;-4
2022/06/13 05:51:21;;;;;;;2.70;1.53;;;22.80;61.30;;;;;;5072312;28;20164;-6
2022/06/13 05:53:47;;;;;;;2.17;1.30;;;22.80;61.30;;;;;;5075180;28;20164;-6
2022/06/13 05:56:13;;;;;;;2.40;1.30;;;22.80;61.20;;;;;;5073325;28;20440;-5
2022/06/13 05:58:39;;;;;;;1.37;1.27;;;22.80;61.30;;;;;;5056293;28;20164;-6
2022/06/13 06:01:05;;;;;;;2.00;1.50;;;22.70;61.30;;;;;;5073320;28;20639;-6
2022/06/13 06:03:32;;;;;;;3.10;1.50;;;22.70;61.40;;;;;;5074244;28;20560;-5
2022/06/13 06:05:59;;;;;;;3.03;1.60;;;22.70;61.50;;;;;;5073584;28;20167;-6
2022/06/13 06:08:37;;;;;;;2.10;1.43;;;22.70;61.60;;;;;;5056857;28;20624;-5
2022/06/13 06:11:04;;;;;;;3.03;1.60;;;22.70;61.70;;;;;;5074208;28;20596;-5
2022/06/13 06:13:30;;;;;;;2.77;1.50;;;22.70;61.80;;;;;;5073462;28;20180;-5
2022/06/13 06:15:59;;;;;;;2.50;1.50;;;22.70;62.00;;;;;;5073450;28;20250;-5
2022/06/13 06:18:26;;;;;;;2.57;1.60;;;22.70;62.00;;;;;;5072980;28;20216;-5
2022/06/13 06:20:52;;;;;;;3.53;1.83;;;22.70;62.10;;;;;;5072720;28;20226;-5
2022/06/13 06:23:18;;;;;;;2.80;1.60;;;22.70;62.30;;;;;;5072223;28;20691;-6
2022/06/13 06:25:45;;;;;;;1.90;1.50;;;22.60;62.20;;;;;;5071948;28;20176;-6
2022/06/13 06:28:19;;;;;;;1.93;1.50;;;22.60;62.30;;;;;;5072189;28;20167;-6
2022/06/13 06:30:45;;;;;;;2.80;1.70;;;22.70;62.50;;;;;;5073210;28;20195;-5
2022/06/13 06:33:11;;;;;;;3.50;1.97;;;22.70;62.50;;;;;;5073037;28;20447;-5
2022/06/13 06:35:37;;;;;;;2.60;1.60;;;22.70;62.60;;;;;;5054436;28;20552;-6
2022/06/13 06:38:03;;;;;;;4.30;1.83;;;22.70;62.60;;;;;;5073105;28;20172;-5
2022/06/13 06:40:29;;;;;;;6.97;1.90;;;22.70;62.70;;;;;;5073093;28;20211;-5
2022/06/13 06:42:55;;;;;;;4.87;1.90;;;22.70;63.30;;;;;;5056048;28;20175;-6
2022/06/13 06:45:23;;;;;;;6.63;2.43;;;22.70;64.70;;;;;;5074359;28;20167;-6
2022/06/13 06:47:49;;;;;;;7.97;2.73;;;22.70;65.10;;;;;;5073323;28;20254;-5
2022/06/13 06:50:19;;;;;;;5.80;2.47;;;22.90;64.90;;;;;;5071727;28;20171;-6
2022/06/13 06:52:45;;;;;;;6.43;2.43;;;23.10;63.50;;;;;;5072965;28;20539;-5
2022/06/13 07:00:47;;;;;;;8.47;2.60;;;23.10;63.20;;;;;;5072417;28;20202;-5
2022/06/13 07:03:14;;;;;;;7.17;2.67;;;23.00;63.20;;;;;;5072572;28;20411;-5
2022/06/13 07:05:39;;;;;;;6.03;2.30;;;23.00;63.20;;;;;;5070739;28;20270;-6
2022/06/13 07:08:05;;;;;;;6.03;2.37;;;23.00;63.20;;;;;;5071218;28;20262;-6
2022/06/13 07:10:31;;;;;;;5.87;2.80;;;23.00;63.20;;;;;;5072215;28;20201;-5
2022/06/13 07:12:57;;;;;;;7.27;2.60;;;23.10;62.60;;;;;;5072060;28;20179;-5
2022/06/13 07:15:23;;;;;;;6.07;2.80;;;23.30;61.60;;;;;;5054623;28;20171;-5
2022/06/13 07:17:49;;;;;;;6.80;2.57;;;23.60;59.70;;;;;;5070829;28;20190;-6
2022/06/13 07:20:15;;;;;;;5.87;2.90;;;23.80;58.90;;;;;;5071962;28;20205;-6
2022/06/13 07:22:50;;;;;;;5.87;2.97;;;23.90;58.60;;;;;;5072832;28;20430;-6
2022/06/13 07:25:23;;;;;;;5.77;2.90;;;23.90;58.50;;;;;;5053669;28;20179;-6
2022/06/13 07:27:49;;;;;;;9.53;3.03;;;24.00;58.30;;;;;;5071838;28;20198;-6
2022/06/13 07:30:17;;;;;;;5.10;2.63;;;24.10;57.80;;;;;;5072441;28;20180;-5
2022/06/13 07:32:44;;;;;;;7.43;2.77;;;24.40;57.00;;;;;;5071975;28;20180;-5
2022/06/13 07:35:12;;;;;;;7.87;2.80;;;24.60;56.50;;;;;;5072449;28;20167;-6
2022/06/13 07:40:24;;;;;;;9.47;2.70;;;24.70;55.90;;;;;;5072310;28;20214;-5
2022/06/13 07:42:58;;;;;;;6.47;3.00;;;24.80;55.70;;;;;;5071871;28;20425;-6
2022/06/13 07:45:28;;;;;;;5.20;2.33;;;24.90;55.50;;;;;;5072239;28;20212;-5
2022/06/13 07:47:54;;;;;;;5.57;3.03;;;25.00;55.30;;;;;;5071108;28;20176;-5
2022/06/13 07:50:23;;;;;;;6.33;2.53;;;24.90;55.50;;;;;;5070897;28;20514;-6
2022/06/13 07:52:50;;;;;;;5.33;2.50;;;24.60;55.80;;;;;;5069127;28;20387;-4
2022/06/13 07:55:16;;;;;;;5.80;2.70;;;24.60;56.20;;;;;;5051913;28;20198;-5
2022/06/13 07:57:43;;;;;;;5.77;2.70;;;24.40;56.60;;;;;;5070443;28;20172;-6
2022/06/13 08:00:13;;;;;;;5.37;2.60;;;24.40;56.90;;;;;;5052881;28;20344;-5
2022/06/13 08:02:39;;;;;;;4.57;2.50;;;24.50;56.80;;;;;;5069969;28;20310;-6
2022/06/13 08:05:05;;;;;;;4.80;2.50;;;24.70;56.30;;;;;;5071698;28;20288;-6
2022/06/13 08:07:31;;;;;;;5.27;2.80;;;24.90;55.70;;;;;;5070540;28;20163;-6
2022/06/13 08:09:57;;;;;;;7.10;2.67;;;25.00;55.20;;;;;;5068883;28;20294;-5
2022/06/13 08:12:25;;;;;;;6.15;2.80;;;25.10;55.20;;;;;;5070455;28;20207;-5
2022/06/13 08:14:51;;;;;;;5.07;2.80;;;25.10;55.00;;;;;;5053394;28;20361;-5
2022/06/13 08:17:22;;;;;;;5.70;2.70;;;25.10;54.90;;;;;;5068802;28;20191;-7
2022/06/13 08:19:48;;;;;;;7.22;2.70;;;25.20;55.00;;;;;;5068067;28;20207;-6
2022/06/13 08:22:18;;;;;;;5.82;2.70;;;25.20;54.80;;;;;;5070877;28;20265;-5
2022/06/13 08:24:43;;;;;;;5.68;2.58;;;25.30;54.80;;;;;;5069813;28;20164;-6
2022/06/13 08:27:10;;;;;;;4.82;2.45;;;25.40;54.60;;;;;;5053126;28;20491;-6
2022/06/13 08:29:35;;;;;;;5.43;2.95;;;25.40;54.40;;;;;;5070777;28;20556;-6
2022/06/13 08:32:02;;;;;;;6.10;2.67;;;25.30;54.50;;;;;;5070922;28;20180;-5
2022/06/13 08:34:28;;;;;;;5.43;3.30;;;25.20;54.80;;;;;;5072059;28;20496;-6
2022/06/13 08:36:56;;;;;;;4.17;3.20;;;25.20;55.00;;;;;;5068728;28;20176;-6
2022/06/13 08:39:22;;;;;;;5.30;3.33;;;25.10;55.10;;;;;;5070090;28;20206;-6
2022/06/13 08:42:13;;;;;;;6.67;3.33;;;25.10;55.40;;;;;;5052617;28;20372;-6
2022/06/13 08:45:09;;;;;;;5.17;3.20;;;25.00;55.50;;;;;;5070457;28;20172;-6
2022/06/13 08:48:24;;;;;;;7.07;3.50;;;24.90;55.70;;;;;;5048140;28;20577;-6
2022/06/13 08:50:58;;;;;;;4.67;3.10;;;24.90;55.80;;;;;;5006773;28;20263;-6
2022/06/13 08:53:51;;;;;;;4.13;3.17;;;24.90;56.00;;;;;;4990668;28;20275;-5
2022/06/13 08:56:20;;;;;;;4.80;3.40;;;24.90;56.00;;;;;;5032363;28;20191;-6
2022/06/13 08:58:46;;;;;;;6.33;3.30;;;24.90;56.00;;;;;;5067686;28;20190;-6
2022/06/13 09:01:36;;;;;;;5.43;3.47;;;24.90;56.10;;;;;;5069722;28;20466;-6
2022/06/13 09:04:08;;;;;;;5.20;3.20;;;24.90;56.30;;;;;;5069828;28;20172;-6
2022/06/13 09:07:08;;;;;;;5.87;3.60;;;24.90;56.40;;;;;;5068880;28;20171;-6
2022/06/13 09:09:49;;;;;;;6.73;4.13;;;24.80;56.40;;;;;;5058307;28;20202;-6
2022/06/13 09:12:30;;;;;;;7.27;4.10;;;24.80;56.40;;;;;;5070050;28;20201;-6
2022/06/13 09:15:27;;;;;;;6.90;3.83;;;24.80;56.60;;;;;;5068640;28;20241;-5
2022/06/13 09:18:11;;;;;;;4.57;3.60;;;24.80;56.70;;;;;;5067787;28;20372;-5
2022/06/13 09:21:01;;;;;;;6.87;4.47;;;24.80;56.80;;;;;;5068311;28;20199;-5
2022/06/13 09:23:39;;;;;;;6.40;4.17;;;24.80;56.90;;;;;;5042558;28;20715;-6
2022/06/13 09:26:33;;;;;;;8.90;4.33;;;24.70;56.90;;;;;;5068217;28;20254;-6
2022/06/13 09:29:08;;;;;;;5.60;4.20;;;24.80;56.90;;;;;;5067633;28;20492;-6
2022/06/13 09:31:39;;;;;;;6.87;4.60;;;24.80;56.80;;;;;;5068066;28;20476;-6
2022/06/13 09:34:18;;;;;;;7.83;4.87;;;24.80;56.80;;;;;;5068192;28;20168;-5
2022/06/13 09:37:02;;;;;;;8.27;5.00;;;24.70;56.90;;;;;;5050788;28;20171;-6
2022/06/13 09:39:27;;;;;;;7.30;5.03;;;24.70;57.40;;;;;;5069055;28;20222;-6
2022/06/13 09:42:17;;;;;;;6.63;4.80;;;24.70;57.20;;;;;;5050377;28;20182;-5
2022/06/13 09:44:56;;;;;;;8.50;5.07;;;24.60;57.40;;;;;;5068331;28;20203;-7
2022/06/13 09:47:43;;;;;;;10.93;5.57;;;24.60;57.50;;;;;;5068681;28;20203;-5
2022/06/13 09:50:20;;;;;;;8.43;5.00;;;24.60;57.70;;;;;;5067775;28;20176;-5
2022/06/13 09:53:04;;;;;;;7.53;5.73;;;24.50;57.80;;;;;;5068848;28;20617;-6
2022/06/13 09:56:00;;;;;;;7.93;5.30;;;24.60;57.80;;;;;;5051604;28;20615;-5
2022/06/13 09:58:41;;;;;;;9.70;5.47;;;24.60;57.50;;;;;;5069215;28;20266;-5
2022/06/13 10:01:06;;;;;;;9.37;5.43;;;24.70;57.50;;;;;;5067624;28;20537;-6
2022/06/13 10:03:50;;;;;;;7.03;5.50;;;24.70;57.50;;;;;;5068260;28;20171;-6
2022/06/13 10:06:19;;;;;;;7.03;5.23;;;24.70;57.50;;;;;;5066791;28;20168;-6
2022/06/13 10:08:56;;;;;;;10.17;5.50;;;24.60;57.40;;;;;;5067690;28;20164;-5
2022/06/13 10:11:31;;;;;;;6.87;5.73;;;24.60;57.50;;;;;;5067682;28;20547;-6
2022/06/13 10:14:30;;;;;;;6.73;5.47;;;24.60;57.60;;;;;;5066775;28;20175;-7
2022/06/13 10:17:40;;;;;;;6.43;5.53;;;24.60;57.60;;;;;;5066598;28;20544;-6
2022/06/13 10:20:06;;;;;;;8.33;5.03;;;24.60;57.80;;;;;;5032477;28;20269;-6
2022/06/13 10:22:50;;;;;;;7.30;4.87;;;24.50;57.90;;;;;;5049310;28;20187;-5
2022/06/13 10:25:41;;;;;;;7.40;5.60;;;24.50;57.90;;;;;;5067785;28;20264;-5
2022/06/13 10:28:06;;;;;;;9.07;5.30;;;24.60;58.00;;;;;;5068122;28;20203;-5
2022/06/13 10:30:57;;;;;;;8.83;5.40;;;24.60;57.80;;;;;;5068369;28;20206;-6
2022/06/13 10:33:31;;;;;;;7.43;5.60;;;24.60;57.70;;;;;;5071595;28;20168;-4
2022/06/13 10:36:22;;;;;;;9.10;5.30;;;24.60;57.60;;;;;;5072002;28;20176;-6
2022/06/13 10:39:09;;;;;;;10.77;5.07;;;24.60;57.60;;;;;;5070568;28;20448;-6
2022/06/13 10:41:39;;;;;;;7.87;5.27;;;24.70;57.50;;;;;;5071529;28;20203;-6
2022/06/13 10:44:11;;;;;;;10.03;5.40;;;24.70;57.50;;;;;;5052972;28;20187;-6
2022/06/13 10:46:43;;;;;;;7.87;4.93;;;24.70;57.40;;;;;;5069908;28;20600;-6
2022/06/13 10:49:19;;;;;;;7.07;4.30;;;24.70;57.30;;;;;;5071186;28;20221;-6
2022/06/13 10:51:45;;;;;;;8.27;4.47;;;24.70;57.30;;;;;;5053130;28;20163;-6
2022/06/13 10:54:19;;;;;;;7.67;4.40;;;24.80;57.30;;;;;;5070132;28;20550;-5
2022/06/13 10:57:01;;;;;;;5.47;4.30;;;24.80;57.30;;;;;;5051828;28;20168;-6
2022/06/13 10:59:32;;;;;;;7.37;4.13;;;24.80;57.30;;;;;;5070211;28;20218;-6
2022/06/13 11:02:01;;;;;;;7.80;4.33;;;24.80;57.30;;;;;;5070274;28;20160;-6
2022/06/13 11:04:37;;;;;;;10.20;4.50;;;24.80;57.20;;;;;;5069749;28;20225;-5
2022/06/13 11:07:19;;;;;;;6.17;3.90;;;24.80;57.20;;;;;;5069514;28;20174;-5
2022/06/13 11:09:47;;;;;;;7.17;4.20;;;24.80;57.10;;;;;;5068851;28;20565;-5
2022/06/13 11:12:36;;;;;;;6.30;4.10;;;24.90;57.10;;;;;;5068941;28;20332;-5
2022/06/13 11:23:55;;;;;;;5.70;3.90;;;24.90;57.00;;;;;;5069392;28;20214;-6
2022/06/13 11:29:17;;;;;;;5.47;3.60;;;24.90;56.90;;;;;;5036067;28;20183;-6
2022/06/13 11:31:54;;;;;;;6.33;3.80;;;24.90;57.30;;;;;;5068313;28;20195;-6
2022/06/13 11:34:26;;;;;;;6.03;3.87;;;24.90;56.90;;;;;;5067060;28;20177;-6
2022/06/13 11:37:13;;;;;;;6.97;3.50;;;24.90;56.90;;;;;;5068303;28;20258;-5
2022/06/13 11:39:51;;;;;;;5.53;3.87;;;25.00;56.90;;;;;;5067869;28;20219;-5
2022/06/13 11:42:27;;;;;;;6.80;3.63;;;25.00;56.80;;;;;;5049550;28;20561;-6
2022/06/13 11:45:00;;;;;;;4.60;3.50;;;25.10;56.80;;;;;;5069990;28;20225;-6
2022/06/13 11:47:37;;;;;;;5.33;3.30;;;25.10;56.80;;;;;;5052426;28;20190;-8
2022/06/13 11:50:18;;;;;;;4.00;3.50;;;25.10;56.80;;;;;;5068171;28;20175;-6
2022/06/13 11:55:32;;;;;;;5.80;3.10;;;25.10;56.80;;;;;;5069322;28;20199;-6
2022/06/13 11:58:00;;;;;;;4.37;3.27;;;25.10;56.80;;;;;;5070396;28;20249;-6
2022/06/13 12:00:34;;;;;;;4.00;2.90;;;25.10;56.80;;;;;;5069090;28;20366;-6
2022/06/13 12:03:26;;;;;;;4.60;3.10;;;25.10;56.80;;;;;;5071023;28;20178;-6
2022/06/13 12:06:13;;;;;;;4.37;2.83;;;25.10;56.80;;;;;;5066710;28;20183;-6
2022/06/13 12:08:39;;;;;;;4.13;2.97;;;25.10;56.80;;;;;;5069972;28;20171;-5
2022/06/13 12:11:21;;;;;;;3.37;3.00;;;25.10;56.80;;;;;;5069876;28;20847;-6
2022/06/13 12:13:48;;;;;;;3.43;2.80;;;25.10;56.80;;;;;;5070141;28;20163;-6
2022/06/13 12:16:24;;;;;;;3.33;2.73;;;25.10;56.80;;;;;;5069467;28;20452;-6
2022/06/13 12:19:05;;;;;;;5.37;3.33;;;25.10;56.90;;;;;;5072039;28;20205;-7
2022/06/13 12:21:36;;;;;;;2.83;2.47;;;25.10;56.90;;;;;;5068691;28;20198;-6
2022/06/13 12:24:36;;;;;;;4.20;2.80;;;25.10;56.90;;;;;;5067870;28;20509;-6
2022/06/13 12:27:13;;;;;;;4.37;2.70;;;25.10;56.90;;;;;;5050255;28;20665;-5
2022/06/13 12:29:44;;;;;;;4.43;2.97;;;25.20;57.00;;;;;;5069083;28;20167;-6
2022/06/13 12:32:10;;;;;;;3.57;2.57;;;25.10;56.90;;;;;;5069959;28;20172;-6
2022/06/13 12:35:12;;;;;;;5.43;2.70;;;25.10;57.00;;;;;;5051282;28;20228;-5
2022/06/13 12:38:04;;;;;;;3.20;2.50;;;25.10;57.00;;;;;;5069849;28;20175;-5
2022/06/13 12:40:44;;;;;;;3.97;2.80;;;25.10;57.00;;;;;;5069003;28;20306;-5
2022/06/13 12:43:45;;;;;;;3.00;2.30;;;25.10;57.10;;;;;;5069132;28;20417;-6
2022/06/13 12:46:40;;;;;;;4.13;2.50;;;25.10;57.10;;;;;;5068796;28;20380;-6
2022/06/13 12:49:41;;;;;;;3.30;2.27;;;25.10;57.00;;;;;;5068603;28;20497;-6
2022/06/13 12:52:39;;;;;;;5.73;2.57;;;25.20;57.00;;;;;;5006616;28;20184;-5
2022/06/13 12:55:33;;;;;;;2.97;2.40;;;25.20;57.00;;;;;;5068094;28;20233;-6
2022/06/13 12:58:17;;;;;;;3.90;2.43;;;25.20;57.00;;;;;;5032160;28;20179;-6
2022/06/13 13:00:57;;;;;;;2.87;2.23;;;25.20;57.00;;;;;;5050885;28;20411;-6
2022/06/13 13:03:36;;;;;;;3.77;2.20;;;25.20;57.00;;;;;;5069421;28;20167;-6
2022/06/13 13:06:29;;;;;;;4.30;2.30;;;25.20;56.90;;;;;;5067424;28;20565;-6
2022/06/13 13:09:11;;;;;;;3.47;2.20;;;25.20;56.90;;;;;;5070260;28;20171;-5
2022/06/13 13:11:36;;;;;;;4.03;2.30;;;25.20;56.90;;;;;;5050184;28;20179;-5
2022/06/13 13:14:27;;;;;;;3.47;2.20;;;25.20;56.90;;;;;;5068609;28;20285;-5
2022/06/13 13:17:15;;;;;;;3.47;2.10;;;25.20;56.80;;;;;;5050980;28;20255;-6
2022/06/13 13:19:51;;;;;;;3.77;2.37;;;25.20;56.80;;;;;;5049054;28;20486;-6
2022/06/13 13:22:28;;;;;;;3.70;2.00;;;25.20;56.80;;;;;;5049318;28;20182;-6
2022/06/13 13:25:00;;;;;;;3.90;2.20;;;25.20;56.80;;;;;;5067214;28;20205;-7
2022/06/13 13:27:26;;;;;;;3.23;2.20;;;25.20;56.80;;;;;;5050040;28;20178;-6
2022/06/13 13:30:13;;;;;;;2.27;1.97;;;25.20;56.80;;;;;;5069153;28;20241;-5
2022/06/13 13:33:01;;;;;;;2.40;1.97;;;25.20;56.80;;;;;;5067968;28;20171;-6
2022/06/13 13:35:37;;;;;;;2.83;2.10;;;25.20;56.90;;;;;;5068713;28;20178;-6
2022/06/13 13:38:15;;;;;;;3.20;2.20;;;25.20;56.90;;;;;;5050963;28;20209;-6
2022/06/13 13:40:57;;;;;;;2.17;1.97;;;25.20;57.00;;;;;;5052250;28;20397;-5
2022/06/13 13:43:37;;;;;;;3.13;2.20;;;25.20;57.00;;;;;;5068034;28;20167;-5
2022/06/13 13:46:20;;;;;;;2.27;1.97;;;25.20;57.00;;;;;;5068423;28;20467;-6
2022/06/13 13:48:55;;;;;;;2.40;1.83;;;25.20;57.00;;;;;;5066391;28;20206;-5
2022/06/13 13:51:38;;;;;;;2.47;2.10;;;25.20;57.00;;;;;;5049902;28;20167;-6
2022/06/13 13:54:45;;;;;;;2.13;1.80;;;25.20;57.00;;;;;;5050839;28;20320;-6
2022/06/13 13:57:21;;;;;;;2.77;1.90;;;25.20;57.00;;;;;;5066606;28;20179;-6
2022/06/13 13:59:50;;;;;;;2.73;1.80;;;25.20;57.00;;;;;;5050167;28;20217;-6
2022/06/13 14:02:54;;;;;;;2.53;1.87;;;25.20;57.00;;;;;;5067843;28;20176;-7
2022/06/13 14:05:47;;;;;;;2.53;1.90;;;25.30;57.00;;;;;;5070187;28;20448;-6
2022/06/13 14:08:25;;;;;;;2.30;1.70;;;25.30;57.10;;;;;;5054824;28;20182;-7
2022/06/13 14:10:58;;;;;;;2.73;1.80;;;25.30;57.10;;;;;;5054566;28;20309;-7